Time;durP1;ratioP1;P1;durP2;ratioP2;P2;SDS_P1;SDS_P2;PMS_P1;PMS_P2;Temp;Humidity;BMP_temperature;BMP_pressure;BME280_temperature;BME280_humidity;BME280_pressure;Samples;Min_cycle;Max_cycle;Signal;HPM_P1;HPM_P2
2022/12/09 00:00:43;;;;;;;30.62;18.00;;;;;;;1.60;87.84;100094.06;1712989;82;21099;-76
2022/12/09 00:03:28;;;;;;;34.23;18.77;;;;;;;1.60;87.84;100094.92;1713482;80;21077;-76
2022/12/09 00:06:20;;;;;;;30.82;18.20;;;;;;;1.61;87.83;100093.23;1715676;80;21097;-76
2022/12/09 00:09:05;;;;;;;29.90;17.90;;;;;;;1.61;87.86;100094.51;1711667;82;21043;-77
2022/12/09 00:11:51;;;;;;;31.45;19.35;;;;;;;1.60;87.88;100080.91;1713264;81;21514;-76
2022/12/09 00:14:36;;;;;;;;;;;;;;;1.61;87.85;100080.49;1715463;81;21105;-76
2022/12/09 00:17:21;;;;;;;32.88;18.27;;;;;;;1.61;87.84;100083.04;1710770;82;20353;-76
2022/12/09 00:20:08;;;;;;;31.37;18.92;;;;;;;1.59;87.79;100082.17;1709386;81;21716;-76
2022/12/09 00:22:56;;;;;;;32.88;19.45;;;;;;;1.60;87.84;100083.88;1712525;82;21086;-76
2022/12/09 00:25:41;;;;;;;30.62;18.57;;;;;;;1.59;87.85;100089.39;1710414;82;21551;-76
2022/12/09 00:28:27;;;;;;;32.48;19.12;;;;;;;1.58;87.80;100097.87;1708104;80;21120;-76
2022/12/09 00:31:20;;;;;;;29.60;17.80;;;;;;;1.59;87.84;100100.00;1705395;81;21611;-76
2022/12/09 00:34:09;;;;;;;32.93;19.42;;;;;;;1.58;87.83;100104.24;1705875;81;21523;-76
2022/12/09 00:36:54;;;;;;;30.32;19.15;;;;;;;1.58;87.87;100097.87;1707062;81;21135;-76
2022/12/09 00:39:40;;;;;;;31.57;18.63;;;;;;;1.58;87.85;100106.79;1705815;81;21147;-76
2022/12/09 00:42:25;;;;;;;28.98;18.32;;;;;;;1.59;87.88;100107.64;1706916;80;20992;-76
2022/12/09 00:45:10;;;;;;;34.87;19.87;;;;;;;1.60;87.90;100103.84;1706404;81;21497;-76
2022/12/09 00:47:55;;;;;;;35.70;19.17;;;;;;;1.62;87.92;100106.41;1705472;80;21151;-76
2022/12/09 00:50:40;;;;;;;28.10;18.67;;;;;;;1.61;87.87;100109.38;1705026;81;21087;-76
2022/12/09 00:53:25;;;;;;;28.75;17.42;;;;;;;1.60;87.85;100117.00;1705072;81;21092;-76
2022/12/09 00:56:10;;;;;;;31.73;18.07;;;;;;;1.59;87.87;100114.87;1703898;81;21068;-76
2022/12/09 00:58:57;;;;;;;28.00;16.93;;;;;;;1.60;87.89;100115.31;1702699;81;21517;-76
2022/12/09 01:01:42;;;;;;;28.65;18.40;;;;;;;1.61;87.90;100123.39;1705680;81;21068;-76
2022/12/09 01:04:27;;;;;;;31.10;18.75;;;;;;;1.64;87.92;100120.02;1704366;81;21497;-77
2022/12/09 01:07:12;;;;;;;29.42;18.70;;;;;;;1.64;87.91;100120.88;1705179;80;21136;-76
2022/12/09 01:09:58;;;;;;;29.72;18.15;;;;;;;1.64;87.89;100118.33;1704546;81;21341;-76
2022/12/09 01:12:43;;;;;;;22.13;14.37;;;;;;;1.65;87.85;100128.11;1704700;81;21072;-76
2022/12/09 01:15:28;;;;;;;27.60;17.60;;;;;;;1.63;87.85;100129.78;1705234;81;21340;-76
2022/12/09 01:18:15;;;;;;;26.73;17.62;;;;;;;1.62;87.82;100131.89;1705680;81;21056;-76
2022/12/09 01:20:59;;;;;;;30.02;18.60;;;;;;;1.59;87.80;100128.89;1705738;81;21561;-76
2022/12/09 01:23:45;;;;;;;28.10;17.43;;;;;;;1.59;87.84;100121.66;1708641;81;21056;-76
2022/12/09 01:26:30;;;;;;;29.05;18.82;;;;;;;1.59;87.89;100121.66;1706553;81;21693;-76
2022/12/09 01:29:15;;;;;;;30.97;18.37;;;;;;;1.60;87.87;100131.02;1704389;81;21766;-76
2022/12/09 01:32:00;;;;;;;27.97;17.93;;;;;;;1.58;87.89;100128.87;1706874;81;21597;-76
2022/12/09 01:34:45;;;;;;;30.80;17.90;;;;;;;1.58;87.90;100128.45;1706027;81;21841;-76
2022/12/09 01:37:35;;;;;;;31.45;18.15;;;;;;;1.58;87.90;100122.08;1705724;81;21100;-76
2022/12/09 01:40:20;;;;;;;28.65;17.02;;;;;;;1.59;87.91;100132.71;1701994;81;21052;-76
2022/12/09 01:43:10;;;;;;;28.15;18.17;;;;;;;1.59;87.88;100126.75;1704656;81;21521;-76
2022/12/09 01:45:55;;;;;;;34.35;19.02;;;;;;;1.59;87.91;100131.85;1704349;81;21071;-77
2022/12/09 01:48:44;;;;;;;32.15;18.15;;;;;;;1.61;87.97;100131.03;1706382;81;21057;-76
2022/12/09 01:51:29;;;;;;;32.50;18.35;;;;;;;1.61;87.89;100132.73;1705411;81;21147;-76
2022/12/09 01:54:15;;;;;;;32.03;19.12;;;;;;;1.62;87.94;100136.98;1704654;81;21616;-76
2022/12/09 01:57:00;;;;;;;30.10;17.37;;;;;;;1.61;87.88;100137.83;1704126;81;21145;-76
2022/12/09 01:59:45;;;;;;;32.25;18.23;;;;;;;1.59;87.84;100137.80;1705130;81;21143;-76
2022/12/09 02:02:31;;;;;;;29.05;18.77;;;;;;;1.58;87.89;100136.09;1709524;81;21552;-76
2022/12/09 02:05:17;;;;;;;30.08;17.52;;;;;;;1.58;87.91;100135.23;1703668;81;21116;-76
2022/12/09 02:08:12;;;;;;;28.42;17.98;;;;;;;1.59;87.91;100135.67;1707559;81;21052;-76
2022/12/09 02:11:26;;;;;;;26.05;17.20;;;;;;;1.58;87.92;100136.09;1705379;81;21110;-76
2022/12/09 02:14:28;;;;;;;28.65;16.10;;;;;;;1.58;87.84;100136.52;1706876;81;21131;-75
2022/12/09 02:17:21;;;;;;;25.72;16.10;;;;;;;1.54;87.83;100129.28;1702627;81;21683;-75
2022/12/09 02:20:34;;;;;;;28.95;17.23;;;;;;;1.46;87.71;100135.11;1662949;84;21715;-75
2022/12/09 02:23:42;;;;;;;31.55;16.52;;;;;;;1.41;87.83;100131.23;1663489;84;21769;-76
2022/12/09 02:26:46;;;;;;;26.45;16.70;;;;;;;1.43;87.91;100138.89;1652809;84;22124;-76
2022/12/09 02:29:54;;;;;;;34.85;17.10;;;;;;;1.43;87.92;100137.62;1645823;84;21182;-76
2022/12/09 02:33:11;;;;;;;29.05;17.00;;;;;;;1.43;87.87;100141.44;1663946;84;21112;-76
2022/12/09 02:36:03;;;;;;;30.52;17.45;;;;;;;1.41;87.86;100139.29;1662956;84;21074;-76
2022/12/09 02:38:51;;;;;;;33.60;18.95;;;;;;;1.39;87.90;100145.64;1663846;84;21130;-76
2022/12/09 02:41:40;;;;;;;34.45;19.32;;;;;;;1.38;87.85;100145.20;1662913;84;21080;-76
2022/12/09 02:44:26;;;;;;;40.35;21.42;;;;;;;1.33;87.77;100143.01;1659566;84;21158;-76
2022/12/09 02:47:13;;;;;;;;;;;;;;;1.26;87.73;100142.48;1662533;84;21084;-75
2022/12/09 02:50:03;;;;;;;32.28;18.10;;;;;;;1.21;87.81;100149.20;1659588;84;20356;-76
2022/12/09 02:52:51;;;;;;;35.40;19.77;;;;;;;1.16;87.79;100145.73;1662503;84;21092;-76
2022/12/09 02:55:38;;;;;;;36.45;18.98;;;;;;;1.12;87.88;100141.02;1662804;84;21167;-76
2022/12/09 02:58:23;;;;;;;37.73;20.25;;;;;;;1.15;87.97;100142.75;1670161;83;21112;-76
2022/12/09 03:01:41;;;;;;;31.82;18.92;;;;;;;1.18;88.01;100142.79;1672714;83;21529;-76
2022/12/09 03:04:29;;;;;;;31.50;19.00;;;;;;;1.21;88.00;100149.20;1671178;83;21604;-76
2022/12/09 03:07:28;;;;;;;40.73;22.32;;;;;;;1.21;87.92;100153.88;1671588;83;21056;-76
2022/12/09 03:10:24;;;;;;;39.55;21.93;;;;;;;1.22;87.95;100146.67;1669935;83;21109;-76
2022/12/09 03:13:21;;;;;;;41.55;20.97;;;;;;;1.20;87.88;100147.07;1670997;82;21089;-76
2022/12/09 03:16:30;;;;;;;40.55;20.25;;;;;;;1.19;87.91;100147.91;1670925;83;21108;-76
2022/12/09 03:19:23;;;;;;;36.58;20.08;;;;;;;1.22;88.01;100145.41;1671605;83;21056;-76
2022/12/09 03:22:20;;;;;;;35.95;19.75;;;;;;;1.24;87.98;100151.79;1671576;83;22104;-76
2022/12/09 03:25:21;;;;;;;35.92;19.12;;;;;;;1.24;87.96;100152.64;1671897;82;21083;-76
2022/12/09 03:28:23;;;;;;;36.77;19.98;;;;;;;1.27;87.99;100147.59;1675159;81;21849;-76
2022/12/09 03:31:12;;;;;;;33.92;19.73;;;;;;;1.29;87.97;100145.07;1696442;81;21050;-76
2022/12/09 03:34:02;;;;;;;38.45;21.42;;;;;;;1.30;87.98;100142.55;1718150;80;21089;-76
2022/12/09 03:36:51;;;;;;;43.28;22.00;;;;;;;1.33;87.97;100145.55;1715141;81;21053;-76
2022/12/09 03:39:38;;;;;;;40.78;22.05;;;;;;;1.33;87.98;100142.59;1715060;81;21053;-76
2022/12/09 03:42:34;;;;;;;43.83;22.27;;;;;;;1.34;87.97;100148.54;1713572;82;21132;-76
2022/12/09 03:45:19;;;;;;;;;;;;;;;1.34;87.93;100149.81;1720084;81;21104;-76
2022/12/09 03:48:05;;;;;;;31.07;15.45;;;;;;;1.33;87.93;100150.23;1665703;83;20238;-76
2022/12/09 03:51:00;;;;;;;48.30;23.25;;;;;;;1.31;87.87;100152.31;1663599;84;21060;-76
2022/12/09 03:53:55;;;;;;;45.33;22.55;;;;;;;1.31;87.92;100150.62;1667075;84;21779;-76
2022/12/09 03:56:44;;;;;;;42.38;21.10;;;;;;;1.33;87.91;100153.20;1667836;84;20976;-76
2022/12/09 03:59:33;;;;;;;43.00;21.95;;;;;;;1.31;87.87;100147.22;1665903;84;21015;-76
2022/12/09 04:02:18;;;;;;;46.10;21.17;;;;;;;1.30;87.90;100146.36;1667263;84;20924;-75
2022/12/09 04:05:04;;;;;;;43.42;21.65;;;;;;;1.29;87.87;100145.07;1670598;84;20940;-76
2022/12/09 04:07:48;;;;;;;46.80;21.63;;;;;;;1.28;87.87;100144.63;1666601;84;21011;-76
2022/12/09 04:10:33;;;;;;;49.10;22.13;;;;;;;1.29;87.96;100147.20;1669009;85;20992;-76
2022/12/09 04:13:18;;;;;;;53.10;24.50;;;;;;;1.31;87.95;100142.13;1665342;83;21402;-76
2022/12/09 04:16:04;;;;;;;49.95;23.02;;;;;;;1.32;87.96;100145.97;1663759;83;445649;-76
2022/12/09 04:18:49;;;;;;;46.18;22.77;;;;;;;1.33;87.93;100145.14;1667276;84;21370;-76
2022/12/09 04:21:34;;;;;;;46.53;21.68;;;;;;;1.32;87.91;100148.52;1664761;84;20943;-76
2022/12/09 04:24:19;;;;;;;45.67;23.42;;;;;;;1.34;87.94;100148.54;1668663;85;20937;-76
2022/12/09 04:27:04;;;;;;;47.10;22.77;;;;;;;1.35;87.94;100152.80;1667199;84;20988;-76
2022/12/09 04:29:49;;;;;;;45.35;22.55;;;;;;;1.36;87.96;100152.37;1661769;84;21587;-76
2022/12/09 04:32:34;;;;;;;45.10;22.75;;;;;;;1.36;87.93;100156.20;1700002;81;20970;-76
2022/12/09 04:35:19;;;;;;;45.38;22.52;;;;;;;1.37;87.96;100154.09;1702252;81;20969;-76
2022/12/09 04:38:04;;;;;;;43.48;21.65;;;;;;;1.38;87.95;100150.71;1699896;81;21005;-76
2022/12/09 04:40:49;;;;;;;46.28;24.02;;;;;;;1.38;87.94;100156.66;1701540;81;21476;-76
2022/12/09 04:43:34;;;;;;;52.40;24.75;;;;;;;1.39;87.94;100153.70;1701661;81;21379;-76
2022/12/09 04:46:19;;;;;;;56.77;25.17;;;;;;;1.39;87.93;100155.83;1700418;81;20962;-76
2022/12/09 04:49:04;;;;;;;52.40;25.32;;;;;;;1.39;87.91;100160.92;1701557;81;20937;-76
2022/12/09 04:51:49;;;;;;;57.15;24.70;;;;;;;1.38;87.94;100155.39;1701678;81;20942;-76
2022/12/09 04:54:34;;;;;;;53.92;24.82;;;;;;;1.38;87.93;100155.39;1702326;81;20895;-76
2022/12/09 04:57:19;;;;;;;50.33;24.05;;;;;;;1.39;87.98;100159.64;1701735;81;20918;-76
2022/12/09 05:00:06;;;;;;;52.08;24.47;;;;;;;1.40;87.96;100161.78;1702116;82;21379;-76
2022/12/09 05:02:50;;;;;;;;;;;;;;;1.40;87.97;100160.50;1707717;81;21442;-76
2022/12/09 05:05:39;;;;;;;43.73;21.00;;;;;;;1.41;88.00;100159.67;1699378;81;20109;-76
2022/12/09 05:08:24;;;;;;;40.43;21.07;;;;;;;1.40;87.94;100165.18;1700199;81;21398;-76
2022/12/09 05:11:09;;;;;;;41.53;21.23;;;;;;;1.40;87.98;100167.73;1701454;81;21410;-76
2022/12/09 05:13:54;;;;;;;40.40;20.40;;;;;;;1.39;88.00;100163.47;1700911;81;21399;-76
2022/12/09 05:16:39;;;;;;;39.95;21.95;;;;;;;1.40;87.96;100164.32;1702739;81;20950;-76
2022/12/09 05:19:24;;;;;;;39.60;20.08;;;;;;;1.39;87.98;100164.74;1703426;81;21002;-77
2022/12/09 05:22:08;;;;;;;37.95;19.40;;;;;;;1.39;87.96;100165.16;1700123;81;20942;-74
2022/12/09 05:24:53;;;;;;;41.58;19.80;;;;;;;1.38;87.95;100163.45;1701063;81;20954;-74
2022/12/09 05:27:38;;;;;;;40.78;18.90;;;;;;;1.38;87.99;100164.30;1700562;81;20977;-74
2022/12/09 05:30:23;;;;;;;41.23;20.17;;;;;;;1.40;88.01;100169.42;1710870;81;20954;-74
2022/12/09 05:33:08;;;;;;;37.30;19.55;;;;;;;1.39;88.00;100169.84;1719280;81;20922;-74
2022/12/09 05:35:53;;;;;;;48.63;21.07;;;;;;;1.39;87.96;100171.53;1715957;81;21048;-73
2022/12/09 05:38:39;;;;;;;38.33;19.73;;;;;;;1.39;88.03;100167.70;1719789;80;20899;-73
2022/12/09 05:41:24;;;;;;;40.52;20.68;;;;;;;1.39;88.00;100174.93;1717575;81;20975;-75
2022/12/09 05:44:10;;;;;;;45.33;21.05;;;;;;;1.36;87.95;100176.58;1719567;81;20957;-74
2022/12/09 05:46:56;;;;;;;39.35;19.20;;;;;;;1.33;87.97;100171.88;1719112;80;21260;-74
2022/12/09 05:49:41;;;;;;;42.03;21.30;;;;;;;1.34;88.04;100176.55;1716736;81;21447;-78
2022/12/09 05:52:26;;;;;;;42.60;20.43;;;;;;;1.34;87.98;100172.73;1716858;81;21419;-73
2022/12/09 05:55:11;;;;;;;37.55;19.30;;;;;;;1.30;87.94;100173.11;1718315;81;21427;-73
2022/12/09 05:57:55;;;;;;;37.73;18.85;;;;;;;1.31;88.04;100173.55;1715177;81;21034;-73
2022/12/09 06:00:40;;;;;;;36.80;19.52;;;;;;;1.31;88.04;100172.27;1718852;80;20891;-74
2022/12/09 06:03:25;;;;;;;42.38;21.00;;;;;;;1.32;88.04;100172.71;1718131;82;20907;-74
2022/12/09 06:06:14;;;;;;;39.70;18.82;;;;;;;1.31;88.00;100173.55;1718402;81;20895;-74
2022/12/09 06:09:00;;;;;;;44.05;21.42;;;;;;;1.31;87.97;100168.87;1718505;81;20933;-74
2022/12/09 06:11:45;;;;;;;43.25;20.50;;;;;;;1.32;88.02;100170.58;1715763;82;21053;-73
2022/12/09 06:14:30;;;;;;;41.05;20.50;;;;;;;1.33;88.05;100173.57;1716383;81;20930;-74
2022/12/09 06:17:15;;;;;;;44.50;21.48;;;;;;;1.34;88.06;100170.19;1716186;81;21462;-74
2022/12/09 06:20:00;;;;;;;44.00;21.42;;;;;;;1.34;88.06;100171.46;1721675;81;20926;-74
2022/12/09 06:22:45;;;;;;;45.78;21.55;;;;;;;1.35;88.02;100173.59;1716567;81;20975;-74
2022/12/09 06:25:30;;;;;;;41.33;20.50;;;;;;;1.33;88.01;100179.52;1717901;81;20902;-74
2022/12/09 06:28:15;;;;;;;49.88;22.90;;;;;;;1.34;88.05;100172.73;1720717;81;20936;-74
2022/12/09 06:31:00;;;;;;;42.58;20.88;;;;;;;1.34;88.05;100175.28;1710777;81;20914;-74
2022/12/09 06:33:45;;;;;;;42.98;19.92;;;;;;;1.34;88.06;100177.83;1706835;81;20953;-74
2022/12/09 06:36:30;;;;;;;50.53;21.57;;;;;;;1.33;88.06;100174.84;1705444;81;21587;-74
2022/12/09 06:39:15;;;;;;;47.80;22.33;;;;;;;1.33;88.05;100175.70;1712417;81;21017;-74
2022/12/09 06:42:00;;;;;;;38.00;20.45;;;;;;;1.33;88.05;100184.61;1708471;81;21381;-74
2022/12/09 06:44:45;;;;;;;37.45;19.30;;;;;;;1.34;88.04;100189.29;1704772;81;21537;-74
2022/12/09 06:47:30;;;;;;;43.13;21.33;;;;;;;1.33;88.04;100192.67;1705449;81;20949;-73
2022/12/09 06:50:15;;;;;;;36.38;18.95;;;;;;;1.31;88.01;100193.92;1703342;81;20929;-73
2022/12/09 06:53:00;;;;;;;37.63;18.92;;;;;;;1.31;88.05;100202.84;1708102;81;20949;-73
2022/12/09 06:55:45;;;;;;;35.55;19.05;;;;;;;1.32;88.08;100200.73;1706942;81;21033;-74
2022/12/09 06:58:32;;;;;;;26.73;15.70;;;;;;;1.33;88.07;100205.41;1709472;81;20914;-74
2022/12/09 07:01:21;;;;;;;30.23;16.05;;;;;;;1.34;88.09;100203.30;1706779;81;21347;-74
2022/12/09 07:04:06;;;;;;;33.70;16.15;;;;;;;1.35;88.09;100207.98;1692473;83;21502;-74
2022/12/09 07:06:51;;;;;;;34.77;17.33;;;;;;;1.36;88.08;100208.41;1709158;81;20910;-74
2022/12/09 07:09:36;;;;;;;26.50;16.15;;;;;;;1.36;88.04;100206.73;1708968;81;21230;-74
2022/12/09 07:12:21;;;;;;;33.85;19.60;;;;;;;1.36;88.11;100199.50;1705257;81;20957;-74
2022/12/09 07:15:08;;;;;;;27.27;16.37;;;;;;;1.39;88.12;100208.05;1706280;81;20914;-74
2022/12/09 07:17:53;;;;;;;31.95;18.00;;;;;;;1.39;88.10;100204.64;1708519;81;21466;-74
2022/12/09 07:20:38;;;;;;;37.23;18.23;;;;;;;1.40;88.08;100202.53;1705869;81;20942;-75
2022/12/09 07:23:22;;;;;;;33.00;18.77;;;;;;;1.38;88.04;100204.20;1711585;80;21481;-75
2022/12/09 07:26:08;;;;;;;30.72;18.12;;;;;;;1.37;88.06;100209.71;1708917;81;20975;-75
2022/12/09 07:28:53;;;;;;;32.53;17.85;;;;;;;1.40;88.13;100215.27;1708000;81;21023;-74
2022/12/09 07:31:38;;;;;;;33.30;17.85;;;;;;;1.38;88.10;100214.39;1709671;81;21604;-74
2022/12/09 07:34:23;;;;;;;31.05;19.98;;;;;;;1.41;88.16;100213.16;1709270;81;20949;-74
2022/12/09 07:37:08;;;;;;;31.90;17.60;;;;;;;1.41;88.10;100210.61;1709079;81;20914;-75
2022/12/09 07:39:53;;;;;;;36.13;19.37;;;;;;;1.42;88.13;100217.42;1707380;81;21598;-74
2022/12/09 07:42:38;;;;;;;29.82;17.12;;;;;;;1.44;88.17;100219.58;1707162;81;21939;-74
2022/12/09 07:45:22;;;;;;;28.23;17.42;;;;;;;1.46;88.16;100214.94;1709374;81;20953;-74
2022/12/09 07:48:08;;;;;;;33.10;18.57;;;;;;;1.47;88.16;100220.89;1708732;81;21807;-74
2022/12/09 07:50:53;;;;;;;36.23;19.12;;;;;;;1.49;88.20;100223.05;1709841;80;20917;-75
2022/12/09 07:53:38;;;;;;;28.40;16.32;;;;;;;1.51;88.16;100222.65;1709761;81;21443;-75
2022/12/09 07:56:24;;;;;;;28.42;17.02;;;;;;;1.52;88.17;100225.64;1706877;81;20990;-76
2022/12/09 07:59:11;;;;;;;28.67;16.73;;;;;;;1.53;88.13;100224.80;1709488;80;20957;-76
2022/12/09 08:01:56;;;;;;;27.37;16.75;;;;;;;1.54;88.17;100224.83;1705324;81;21917;-76
2022/12/09 08:04:41;;;;;;;27.00;16.05;;;;;;;1.56;88.17;100224.84;1706360;81;21484;-76
2022/12/09 08:07:26;;;;;;;37.73;16.80;;;;;;;1.55;88.13;100227.81;1707431;81;20929;-76
2022/12/09 08:10:11;;;;;;;25.90;15.15;;;;;;;1.56;88.16;100223.58;1707520;81;20989;-76
2022/12/09 08:12:56;;;;;;;30.30;16.67;;;;;;;1.58;88.17;100224.42;1705187;81;21541;-76
2022/12/09 08:15:41;;;;;;;28.52;15.70;;;;;;;1.59;88.13;100226.13;1705691;81;21017;-76
2022/12/09 08:18:26;;;;;;;26.50;15.68;;;;;;;1.59;88.10;100226.98;1705543;81;20957;-76
2022/12/09 08:21:19;;;;;;;28.65;14.95;;;;;;;1.61;88.11;100229.55;1705839;81;20969;-76
2022/12/09 08:24:04;;;;;;;26.82;15.30;;;;;;;1.60;88.08;100233.80;1706388;81;20969;-76
2022/12/09 08:26:50;;;;;;;26.07;14.55;;;;;;;1.63;88.13;100239.36;1706069;81;21591;-75
2022/12/09 08:29:34;;;;;;;27.73;15.58;;;;;;;1.63;88.13;100238.94;1708950;81;21053;-76
2022/12/09 08:32:19;;;;;;;26.97;15.30;;;;;;;1.65;88.15;100240.23;1708171;81;20953;-76
2022/12/09 08:35:06;;;;;;;24.12;13.68;;;;;;;1.65;88.13;100243.64;1709489;81;21402;-76
2022/12/09 08:37:51;;;;;;;27.27;15.28;;;;;;;1.63;88.02;100238.08;1708895;81;20945;-76
2022/12/09 08:40:36;;;;;;;30.52;16.12;;;;;;;1.62;88.12;100235.09;1709053;81;21573;-76
2022/12/09 08:43:21;;;;;;;29.75;16.05;;;;;;;1.65;88.18;100240.23;1709167;81;21826;-76
2022/12/09 08:46:07;;;;;;;27.73;15.98;;;;;;;1.67;88.18;100244.94;1709310;81;20906;-76
2022/12/09 08:48:51;;;;;;;29.18;16.42;;;;;;;1.68;88.20;100238.14;1707110;81;21932;-76
2022/12/09 08:51:37;;;;;;;30.72;16.40;;;;;;;1.72;88.21;100236.08;1707381;81;21304;-76
2022/12/09 08:54:22;;;;;;;37.15;18.12;;;;;;;1.74;88.15;100240.78;1709715;81;21390;-76
2022/12/09 08:57:07;;;;;;;30.07;18.03;;;;;;;1.74;88.11;100231.86;1709233;81;21143;-76
2022/12/09 08:59:52;;;;;;;30.95;17.45;;;;;;;1.73;88.11;100237.37;1708080;81;21064;-76
2022/12/09 09:02:37;;;;;;;33.63;17.75;;;;;;;1.73;88.10;100243.75;1708024;81;21100;-76
2022/12/09 09:05:22;;;;;;;34.45;18.27;;;;;;;1.74;88.12;100246.73;1706970;81;21103;-76
2022/12/09 09:08:07;;;;;;;50.67;22.67;;;;;;;1.72;88.01;100244.58;1707401;81;21533;-76
2022/12/09 09:10:53;;;;;;;61.35;24.57;;;;;;;1.65;87.99;100241.50;1708366;81;21060;-76
2022/12/09 09:13:41;;;;;;;70.20;26.80;;;;;;;1.66;88.13;100246.63;1706233;81;21116;-76
2022/12/09 09:16:26;;;;;;;64.85;25.12;;;;;;;1.65;88.15;100244.05;1706096;81;21107;-76
2022/12/09 09:19:24;;;;;;;72.27;27.20;;;;;;;1.67;88.21;100242.38;1708107;81;21143;-76
2022/12/09 09:22:08;;;;;;;70.00;26.70;;;;;;;1.70;88.25;100238.61;1704404;81;21072;-76
2022/12/09 09:24:54;;;;;;;64.75;25.97;;;;;;;1.73;88.22;100241.61;1707165;81;21088;-76
2022/12/09 09:27:39;;;;;;;72.95;28.52;;;;;;;1.74;88.19;100239.09;1707585;81;21108;-76
2022/12/09 09:30:23;;;;;;;69.55;26.50;;;;;;;1.76;88.20;100231.05;1708625;81;21075;-76
2022/12/09 09:33:09;;;;;;;65.80;26.70;;;;;;;1.77;88.19;100237.00;1717741;81;21108;-76
2022/12/09 09:35:57;;;;;;;57.83;23.75;;;;;;;1.77;88.18;100235.72;1719696;80;21140;-76
2022/12/09 09:38:43;;;;;;;59.60;25.45;;;;;;;1.79;88.22;100232.36;1720384;81;21483;-76
2022/12/09 09:41:39;;;;;;;56.77;23.62;;;;;;;1.81;88.17;100236.20;1717163;81;21080;-75
2022/12/09 09:44:38;;;;;;;59.90;24.40;;;;;;;1.79;88.12;100233.63;1719649;81;21403;-75
2022/12/09 09:47:40;;;;;;;58.83;24.98;;;;;;;1.82;88.22;100237.50;1716294;81;21577;-75
2022/12/09 09:50:50;;;;;;;62.27;24.37;;;;;;;1.85;88.22;100234.98;1720358;81;21061;-75
2022/12/09 09:53:35;;;;;;;55.65;21.23;;;;;;;1.85;88.08;100235.41;1574780;81;5001404;-74
2022/12/09 09:56:45;;;;;;;56.13;23.70;;;;;;;1.83;88.09;100237.94;1708638;81;21793;-75
2022/12/09 09:59:50;;;;;;;60.73;23.95;;;;;;;1.80;88.06;100235.77;1720206;81;21450;-75
2022/12/09 10:03:11;;;;;;;59.10;24.75;;;;;;;1.82;88.15;100237.50;1716294;81;21053;-75
2022/12/09 10:06:03;;;;;;;55.08;23.07;;;;;;;1.85;88.21;100234.13;1716060;81;22447;-75
2022/12/09 10:09:05;;;;;;;49.25;21.62;;;;;;;1.86;88.10;100234.57;1719284;81;21033;-75
2022/12/09 10:11:57;;;;;;;46.92;21.40;;;;;;;1.78;87.97;100237.44;1719380;81;21069;-75
2022/12/09 10:15:02;;;;;;;43.85;21.93;;;;;;;1.74;88.02;100231.44;1721627;81;22409;-75
2022/12/09 10:18:00;;;;;;;55.20;22.55;;;;;;;1.78;88.14;100236.16;1718506;81;21088;-75
2022/12/09 10:20:46;;;;;;;49.25;22.07;;;;;;;1.78;88.12;100239.98;1717838;81;21041;-75
2022/12/09 10:23:31;;;;;;;74.35;30.17;;;;;;;1.81;88.18;100239.61;1718922;81;21057;-75
2022/12/09 10:26:24;;;;;;;58.35;24.65;;;;;;;1.79;87.97;100244.25;1719756;81;21097;-75
2022/12/09 10:29:35;;;;;;;54.53;23.30;;;;;;;1.73;87.97;100241.61;1715738;81;21467;-75
2022/12/09 10:32:27;;;;;;;56.02;23.45;;;;;;;1.76;88.09;100240.37;1715597;82;21054;-74
2022/12/09 10:35:22;;;;;;;52.65;23.12;;;;;;;1.79;88.16;100232.78;1696447;81;21598;-75
2022/12/09 10:38:16;;;;;;;52.95;22.67;;;;;;;1.83;88.17;100242.18;1715530;81;21043;-75
2022/12/09 10:43:33;;;;;;;52.20;23.42;;;;;;;1.88;88.16;100245.64;1714493;81;21433;-75
2022/12/09 10:44:21;;;;;;;47.62;22.00;;;;;;;1.87;88.05;100244.79;1713090;81;20973;-75
2022/12/09 10:47:25;;;;;;;46.55;22.22;;;;;;;1.90;88.11;100242.70;1716120;81;21410;-74
2022/12/09 10:50:15;;;;;;;46.45;20.48;;;;;;;1.88;88.00;100240.13;1715833;81;20913;-74
2022/12/09 10:53:07;;;;;;;47.25;21.82;;;;;;;1.84;87.93;100238.38;1715628;80;21577;-75
2022/12/09 10:55:55;;;;;;;46.37;20.57;;;;;;;1.78;87.82;100242.53;1697696;82;21367;-74
2022/12/09 10:58:40;;;;;;;46.42;21.07;;;;;;;1.80;88.03;100237.04;1702177;81;21455;-74
2022/12/09 11:01:25;;;;;;;46.30;21.25;;;;;;;1.86;88.17;100234.16;1714527;80;20953;-74
2022/12/09 11:04:13;;;;;;;45.52;21.80;;;;;;;1.92;88.16;100238.06;1712900;81;21466;-75
2022/12/09 11:07:15;;;;;;;39.63;19.02;;;;;;;1.95;88.06;100233.42;1711505;82;20918;-74
2022/12/09 11:10:05;;;;;;;39.95;19.87;;;;;;;1.96;87.99;100233.44;1716793;80;21007;-74
2022/12/09 11:12:58;;;;;;;36.38;19.00;;;;;;;1.95;87.92;100228.31;1710623;81;20902;-74
2022/12/09 11:15:45;;;;;;;34.85;18.12;;;;;;;1.98;88.03;100219.44;1717176;81;21544;-75
2022/12/09 11:18:35;;;;;;;36.28;18.77;;;;;;;2.01;87.94;100221.16;1708494;82;20954;-75
2022/12/09 11:21:35;;;;;;;40.80;20.02;;;;;;;2.04;88.05;100215.69;1698826;82;21505;-75
2022/12/09 11:24:23;;;;;;;37.80;18.37;;;;;;;2.04;87.93;100210.58;1718557;82;20995;-75
2022/12/09 11:27:31;;;;;;;35.03;17.90;;;;;;;2.02;87.86;100208.85;1720922;80;20966;-75
2022/12/09 11:30:21;;;;;;;37.83;18.40;;;;;;;2.00;87.87;100210.11;1719419;82;20910;-75
2022/12/09 11:33:15;;;;;;;37.45;18.77;;;;;;;2.04;87.96;100212.28;1711331;81;20974;-75
2022/12/09 11:36:08;;;;;;;39.25;19.42;;;;;;;2.05;88.01;100212.30;1710783;81;20941;-75
2022/12/09 11:39:09;;;;;;;38.83;17.55;;;;;;;2.02;87.82;100217.36;1715177;81;20946;-75
2022/12/09 11:42:16;;;;;;;35.38;18.70;;;;;;;1.91;87.75;100215.95;1711703;81;21430;-75
2022/12/09 11:45:33;;;;;;;34.85;16.52;;;;;;;1.93;87.95;100217.24;1712110;81;20917;-75
2022/12/09 11:48:26;;;;;;;35.10;19.25;;;;;;;1.97;88.01;100211.34;1710854;81;20946;-75
2022/12/09 11:51:31;;;;;;;33.85;18.25;;;;;;;1.99;87.99;100204.16;1710649;81;21517;-74
2022/12/09 11:54:24;;;;;;;32.28;17.25;;;;;;;2.02;87.88;100199.51;1711062;81;20957;-75
2022/12/09 11:57:47;;;;;;;33.42;17.92;;;;;;;2.01;87.82;100198.22;1702498;81;21537;-75
2022/12/09 12:00:40;;;;;;;37.65;19.05;;;;;;;1.99;87.75;100202.02;1710315;81;21029;-75
2022/12/09 12:03:53;;;;;;;37.58;18.90;;;;;;;2.02;87.90;100199.92;1708768;81;20980;-74
2022/12/09 12:07:00;;;;;;;39.70;18.98;;;;;;;2.04;87.86;100191.45;1710413;81;20907;-75
2022/12/09 12:09:57;;;;;;;40.75;19.85;;;;;;;2.04;87.78;100191.45;1712958;81;21512;-75
2022/12/09 12:13:12;;;;;;;40.58;20.10;;;;;;;2.06;87.80;100192.75;1708331;81;21339;-75
2022/12/09 12:16:17;;;;;;;33.25;18.20;;;;;;;2.04;87.75;100190.19;1712211;81;20918;-74
2022/12/09 12:19:10;;;;;;;36.00;18.73;;;;;;;1.97;87.65;100190.95;1714090;80;20905;-75
2022/12/09 12:22:33;;;;;;;29.90;16.48;;;;;;;1.89;87.56;100192.55;1710093;81;20917;-74
2022/12/09 12:25:47;;;;;;;31.82;16.85;;;;;;;1.89;87.74;100184.90;1715087;81;20906;-75
2022/12/09 12:29:19;;;;;;;25.92;15.85;;;;;;;1.90;87.75;100179.82;1647371;85;21922;-75
2022/12/09 12:32:18;;;;;;;32.67;17.60;;;;;;;1.91;87.75;100172.61;1646828;85;20981;-75
2022/12/09 12:35:16;;;;;;;32.28;17.02;;;;;;;1.88;87.57;100175.54;1654379;85;21495;-75
2022/12/09 12:38:30;;;;;;;35.58;19.67;;;;;;;1.84;87.61;100183.98;1651452;85;21585;-75
2022/12/09 12:41:50;;;;;;;28.55;16.07;;;;;;;1.83;87.71;100179.30;1648252;85;21005;-74
2022/12/09 12:48:11;;;;;;;22.25;13.13;;;;;;;1.75;87.53;100177.50;1527308;92;21058;-74
2022/12/09 12:51:28;;;;;;;21.65;13.30;;;;;;;1.65;87.41;100176.52;1493012;94;21137;-74
2022/12/09 12:54:35;;;;;;;22.98;13.55;;;;;;;1.66;87.61;100179.09;1526423;92;21074;-74
2022/12/09 12:57:33;;;;;;;20.25;12.82;;;;;;;1.72;87.66;100178.73;1527056;92;21078;-74
2022/12/09 13:00:24;;;;;;;24.55;14.03;;;;;;;1.75;87.70;100178.36;1564497;89;21045;-75
2022/12/09 13:03:30;;;;;;;23.38;13.93;;;;;;;1.78;87.63;100180.09;1565013;89;21134;-75
2022/12/09 13:06:19;;;;;;;22.30;13.48;;;;;;;1.81;87.61;100182.67;1561608;89;21045;-75
2022/12/09 13:09:11;;;;;;;22.93;13.83;;;;;;;1.82;87.50;100183.11;1563152;89;21069;-74